Time;durP1;ratioP1;P1;durP2;ratioP2;P2;SDS_P1;SDS_P2;PMS_P1;PMS_P2;Temp;Humidity;BMP_temperature;BMP_pressure;BME280_temperature;BME280_humidity;BME280_pressure;Samples;Min_cycle;Max_cycle;Signal;HPM_P1;HPM_P2
2023/07/25 00:00:30;;;;;;;5.47;3.47;;;13.30;99.90;;;;;;5036373;28;20520;-69
2023/07/25 00:02:56;;;;;;;8.45;3.28;;;13.30;99.90;;;;;;5054037;28;20134;-68
2023/07/25 00:05:22;;;;;;;4.25;3.33;;;13.20;99.90;;;;;;5054120;28;20117;-68
2023/07/25 00:07:48;;;;;;;5.78;3.20;;;13.20;99.90;;;;;;5054336;28;20041;-68
2023/07/25 00:10:13;;;;;;;4.60;3.10;;;13.20;99.90;;;;;;5054074;28;20131;-69
2023/07/25 00:12:39;;;;;;;4.10;2.85;;;13.10;99.90;;;;;;5036376;28;20051;-68
2023/07/25 00:15:05;;;;;;;4.38;2.65;;;13.20;99.90;;;;;;5053811;28;20472;-68
2023/07/25 00:17:31;;;;;;;8.10;3.50;;;13.10;99.90;;;;;;5053681;28;20075;-68
2023/07/25 00:19:57;;;;;;;7.57;3.00;;;13.10;99.90;;;;;;5036465;28;20053;-68
2023/07/25 00:22:22;;;;;;;4.53;3.15;;;13.10;99.90;;;;;;5053946;28;20041;-68
2023/07/25 00:24:48;;;;;;;3.85;2.95;;;13.10;99.90;;;;;;5053852;28;20390;-69
2023/07/25 00:27:14;;;;;;;6.88;3.72;;;13.10;99.90;;;;;;5053675;28;20090;-68
2023/07/25 00:29:40;;;;;;;5.68;4.05;;;13.10;99.90;;;;;;5053635;28;20053;-68
2023/07/25 00:32:06;;;;;;;6.53;3.08;;;13.00;99.90;;;;;;5054177;28;20049;-68
2023/07/25 00:34:31;;;;;;;8.00;4.03;;;13.00;99.90;;;;;;5054197;28;20049;-68
2023/07/25 00:36:57;;;;;;;3.90;3.20;;;13.00;99.90;;;;;;5054240;28;20528;-69
2023/07/25 00:39:23;;;;;;;5.38;3.67;;;13.00;99.90;;;;;;5053456;28;20052;-68
2023/07/25 00:41:48;;;;;;;6.57;3.80;;;12.90;99.90;;;;;;5053599;28;20050;-69
2023/07/25 00:44:14;;;;;;;5.57;3.28;;;12.90;99.90;;;;;;5053379;28;20063;-68
2023/07/25 00:46:43;;;;;;;6.82;4.13;;;12.90;99.90;;;;;;5053196;28;20052;-70
2023/07/25 00:49:10;;;;;;;7.80;3.67;;;12.90;99.90;;;;;;5036021;28;20052;-68
2023/07/25 00:51:36;;;;;;;7.65;3.97;;;12.90;99.90;;;;;;5053144;28;20049;-68
2023/07/25 00:54:02;;;;;;;4.28;3.00;;;12.90;99.90;;;;;;5035466;28;20052;-67
2023/07/25 00:56:28;;;;;;;4.35;3.53;;;12.80;99.90;;;;;;5053120;28;20048;-68
2023/07/25 00:58:54;;;;;;;4.35;2.97;;;12.80;99.90;;;;;;5053310;28;20037;-68
2023/07/25 01:01:21;;;;;;;7.07;2.78;;;12.80;99.90;;;;;;5053128;28;20048;-70
2023/07/25 01:03:47;;;;;;;7.35;3.78;;;12.70;99.90;;;;;;5052996;28;20477;-68
2023/07/25 01:06:15;;;;;;;7.15;3.80;;;12.70;99.90;;;;;;5053317;28;20127;-69
2023/07/25 01:09:07;;;;;;;6.50;3.38;;;12.70;99.90;;;;;;5053067;28;20045;-68
2023/07/25 01:11:33;;;;;;;4.65;3.33;;;12.60;99.90;;;;;;5049920;28;20072;-69
2023/07/25 01:13:59;;;;;;;3.42;2.92;;;12.60;99.90;;;;;;5053070;28;20430;-71
2023/07/25 01:16:26;;;;;;;4.57;3.10;;;12.60;99.90;;;;;;5052812;28;20092;-68
2023/07/25 01:18:53;;;;;;;6.85;3.67;;;12.60;99.90;;;;;;5035023;28;20099;-69
2023/07/25 01:21:22;;;;;;;6.85;4.05;;;12.60;99.90;;;;;;5053101;28;20045;-70
2023/07/25 01:23:49;;;;;;;5.93;3.10;;;12.60;99.90;;;;;;5052744;28;20095;-68
2023/07/25 01:26:16;;;;;;;5.68;2.88;;;12.70;99.90;;;;;;5052676;28;20049;-68
2023/07/25 01:28:42;;;;;;;6.13;3.15;;;12.70;99.90;;;;;;5052561;28;20120;-69
2023/07/25 01:31:07;;;;;;;5.72;4.20;;;12.70;99.90;;;;;;5052920;28;20562;-68
2023/07/25 01:33:33;;;;;;;6.78;3.83;;;12.70;99.90;;;;;;5052474;28;20060;-68
2023/07/25 01:36:00;;;;;;;3.45;2.58;;;12.70;99.90;;;;;;5052860;28;20183;-69
2023/07/25 01:38:25;;;;;;;7.22;3.42;;;12.80;99.90;;;;;;5052461;28;20048;-69
2023/07/25 01:40:51;;;;;;;4.43;3.50;;;12.80;99.90;;;;;;5052965;28;20053;-68
2023/07/25 01:43:17;;;;;;;4.78;3.70;;;12.90;99.90;;;;;;5052905;28;20529;-68
2023/07/25 01:45:42;;;;;;;5.63;2.80;;;12.90;99.90;;;;;;5052734;28;20391;-70
2023/07/25 01:48:08;;;;;;;6.10;3.03;;;12.90;99.90;;;;;;5052393;28;20048;-68
2023/07/25 01:50:34;;;;;;;7.78;3.53;;;12.90;99.90;;;;;;5052902;28;20091;-69
2023/07/25 01:52:59;;;;;;;9.65;3.10;;;12.90;99.90;;;;;;5051905;28;20450;-68
2023/07/25 01:55:25;;;;;;;4.53;3.10;;;12.90;99.90;;;;;;5052573;28;20428;-69
2023/07/25 01:57:51;;;;;;;3.85;2.85;;;12.90;99.90;;;;;;5052343;28;20116;-70
2023/07/25 02:00:17;;;;;;;4.93;2.53;;;13.00;99.90;;;;;;5034951;28;20462;-68
2023/07/25 02:02:43;;;;;;;7.53;3.53;;;13.00;99.90;;;;;;5034490;28;20049;-68
2023/07/25 02:05:08;;;;;;;5.65;5.07;;;13.10;99.90;;;;;;5034479;28;20377;-68
2023/07/25 02:07:34;;;;;;;4.25;3.17;;;13.10;99.90;;;;;;5052772;28;20052;-68
2023/07/25 02:10:00;;;;;;;7.80;3.85;;;13.10;99.90;;;;;;5052734;28;20528;-68
2023/07/25 02:12:28;;;;;;;7.57;3.55;;;13.20;99.90;;;;;;5034744;28;20157;-69
2023/07/25 02:14:54;;;;;;;5.78;3.28;;;13.20;99.90;;;;;;5051873;28;20095;-68
2023/07/25 02:17:19;;;;;;;8.00;4.20;;;13.20;99.90;;;;;;5034465;28;20053;-69
2023/07/25 02:19:45;;;;;;;5.30;2.83;;;13.20;99.90;;;;;;5051988;28;20049;-68
2023/07/25 02:22:11;;;;;;;9.60;3.47;;;13.70;99.90;;;;;;5052467;28;20103;-70
2023/07/25 02:24:37;;;;;;;9.32;2.97;;;13.30;99.90;;;;;;5018214;28;20081;-69
2023/07/25 02:27:03;;;;;;;4.40;3.88;;;13.40;99.90;;;;;;5051986;28;20049;-68
2023/07/25 02:29:30;;;;;;;6.30;4.10;;;13.40;99.90;;;;;;5052127;28;20107;-68
2023/07/25 02:31:56;;;;;;;8.93;3.55;;;13.40;99.90;;;;;;5051852;28;20053;-68
2023/07/25 02:34:22;;;;;;;4.47;3.20;;;13.40;99.90;;;;;;5034625;28;20045;-71
2023/07/25 02:36:47;;;;;;;6.40;2.92;;;13.50;99.90;;;;;;5051862;28;20166;-69
2023/07/25 02:39:13;;;;;;;7.45;3.53;;;13.50;99.90;;;;;;5051916;28;20053;-70
2023/07/25 02:41:39;;;;;;;6.95;2.85;;;13.50;99.90;;;;;;5051544;28;20041;-68
2023/07/25 02:44:04;;;;;;;7.53;3.28;;;13.50;99.90;;;;;;5052232;28;20115;-68
2023/07/25 02:46:30;;;;;;;6.45;2.78;;;13.50;99.90;;;;;;5051753;28;20052;-69
2023/07/25 02:48:56;;;;;;;6.38;3.42;;;13.40;99.90;;;;;;5051693;28;20045;-69
2023/07/25 02:51:21;;;;;;;6.65;3.00;;;13.40;99.90;;;;;;5001625;28;20107;-69
2023/07/25 02:53:47;;;;;;;6.47;3.60;;;13.40;99.90;;;;;;5051686;28;20051;-70
2023/07/25 02:56:13;;;;;;;4.78;3.88;;;13.40;99.90;;;;;;5051419;28;20052;-70
2023/07/25 02:58:38;;;;;;;5.55;3.20;;;13.30;99.90;;;;;;5052147;28;20056;-68
2023/07/25 03:01:04;;;;;;;6.03;2.35;;;13.30;99.90;;;;;;5051720;28;20044;-68
2023/07/25 03:03:30;;;;;;;7.03;3.75;;;13.30;99.90;;;;;;5052053;28;20052;-69
2023/07/25 03:05:55;;;;;;;6.40;3.13;;;13.30;99.90;;;;;;5055167;28;20052;-68
2023/07/25 03:08:21;;;;;;;4.88;3.10;;;13.30;99.90;;;;;;5055198;28;20393;-67
2023/07/25 03:10:47;;;;;;;5.53;3.60;;;13.30;99.90;;;;;;5055079;28;20178;-68
2023/07/25 03:13:13;;;;;;;10.35;3.83;;;13.30;99.90;;;;;;5055107;28;20037;-68
2023/07/25 03:15:39;;;;;;;7.53;3.67;;;13.30;99.90;;;;;;5055448;28;20064;-68
2023/07/25 03:18:04;;;;;;;4.20;3.35;;;13.30;99.90;;;;;;5054800;28;20056;-68
2023/07/25 03:20:30;;;;;;;7.20;3.30;;;13.30;99.90;;;;;;5055489;28;20103;-69
2023/07/25 03:22:56;;;;;;;5.68;3.63;;;13.30;99.90;;;;;;5054903;28;20528;-68
2023/07/25 03:25:21;;;;;;;7.03;3.17;;;13.30;99.90;;;;;;5055015;28;20125;-69
2023/07/25 03:27:47;;;;;;;6.68;2.90;;;13.30;99.90;;;;;;5037112;28;20415;-68
2023/07/25 03:30:13;;;;;;;3.35;3.05;;;13.30;99.90;;;;;;5036771;28;20060;-70
2023/07/25 03:32:39;;;;;;;3.25;2.70;;;13.40;99.90;;;;;;5054711;28;20075;-68
2023/07/25 03:35:05;;;;;;;6.75;3.25;;;13.40;99.90;;;;;;5054863;28;20037;-68
2023/07/25 03:37:31;;;;;;;4.78;3.60;;;13.50;99.90;;;;;;5054547;28;20076;-68
2023/07/25 03:39:56;;;;;;;5.00;3.30;;;13.50;99.90;;;;;;5036627;28;20094;-68
2023/07/25 03:42:22;;;;;;;6.55;2.90;;;13.50;99.90;;;;;;5054961;28;20041;-70
2023/07/25 03:44:48;;;;;;;7.80;3.20;;;13.60;99.90;;;;;;5055052;28;20069;-68
2023/07/25 03:47:13;;;;;;;7.47;3.65;;;13.60;99.90;;;;;;5054792;28;20466;-68
2023/07/25 03:49:39;;;;;;;7.00;3.40;;;13.70;99.90;;;;;;5054377;28;20052;-68
2023/07/25 03:52:05;;;;;;;9.85;4.43;;;13.70;99.90;;;;;;5054380;28;20098;-69
2023/07/25 03:54:31;;;;;;;10.13;3.85;;;13.70;99.90;;;;;;5054331;28;20045;-69
2023/07/25 03:56:56;;;;;;;4.13;3.42;;;13.80;99.90;;;;;;5020623;28;20048;-68
2023/07/25 03:59:22;;;;;;;7.00;3.03;;;13.80;99.90;;;;;;5020264;28;20059;-68
2023/07/25 04:01:48;;;;;;;7.45;2.60;;;13.80;99.90;;;;;;5054248;28;20120;-69
2023/07/25 04:04:14;;;;;;;10.15;3.75;;;13.80;99.90;;;;;;5054257;28;20091;-68
2023/07/25 04:06:39;;;;;;;3.70;2.80;;;13.90;99.90;;;;;;5054597;28;20470;-69
2023/07/25 04:09:05;;;;;;;6.65;2.97;;;13.90;99.90;;;;;;5054446;28;20434;-69
2023/07/25 04:11:31;;;;;;;5.47;3.10;;;13.90;99.90;;;;;;5053986;28;20501;-70
2023/07/25 04:13:57;;;;;;;7.78;3.53;;;13.90;99.90;;;;;;5053965;28;20037;-68
2023/07/25 04:16:23;;;;;;;5.70;2.53;;;14.00;99.90;;;;;;5053372;28;20076;-68
2023/07/25 04:18:48;;;;;;;6.45;3.92;;;13.90;99.90;;;;;;5053789;28;20110;-68
2023/07/25 04:21:14;;;;;;;8.65;3.03;;;13.90;99.90;;;;;;5053748;28;20052;-70
2023/07/25 04:23:41;;;;;;;6.95;2.90;;;13.90;99.90;;;;;;5054154;28;20124;-69
2023/07/25 04:26:07;;;;;;;7.60;3.45;;;13.90;99.90;;;;;;5053703;28;20088;-70
2023/07/25 04:28:32;;;;;;;11.73;3.30;;;14.00;99.90;;;;;;5053673;28;20049;-68
2023/07/25 04:30:58;;;;;;;2.78;2.22;;;14.00;99.90;;;;;;5053670;28;20041;-68
2023/07/25 04:33:24;;;;;;;6.75;3.50;;;14.00;99.90;;;;;;5053651;28;20048;-68
2023/07/25 04:35:49;;;;;;;6.13;2.33;;;14.00;99.90;;;;;;5053844;28;20080;-68
2023/07/25 04:38:15;;;;;;;6.28;4.18;;;14.10;99.90;;;;;;5053518;28;20045;-69
2023/07/25 04:40:43;;;;;;;4.47;3.30;;;14.00;99.90;;;;;;5035564;28;20539;-68
2023/07/25 04:43:09;;;;;;;4.25;2.97;;;14.10;99.90;;;;;;5036159;28;20118;-67
2023/07/25 04:45:34;;;;;;;5.90;3.15;;;14.10;99.90;;;;;;5019117;28;20148;-68
2023/07/25 04:48:00;;;;;;;4.50;2.65;;;14.10;99.90;;;;;;5053381;28;20052;-69
2023/07/25 04:50:26;;;;;;;5.38;3.45;;;14.20;99.90;;;;;;5053001;28;20120;-67
2023/07/25 04:52:51;;;;;;;7.72;3.05;;;13.90;99.90;;;;;;5052990;28;20041;-70
2023/07/25 04:55:17;;;;;;;4.47;2.97;;;14.20;99.90;;;;;;5053380;28;20053;-68
2023/07/25 04:57:43;;;;;;;7.72;3.38;;;14.20;99.90;;;;;;5035117;28;20644;-68
2023/07/25 05:00:09;;;;;;;5.78;2.78;;;14.20;99.90;;;;;;5052810;28;20063;-69
2023/07/25 05:02:35;;;;;;;5.18;3.20;;;14.20;99.90;;;;;;5052772;28;20063;-70
2023/07/25 05:05:01;;;;;;;5.43;3.20;;;14.30;99.90;;;;;;5053092;28;20478;-68
2023/07/25 05:07:27;;;;;;;5.13;2.95;;;14.40;99.90;;;;;;5052649;28;20047;-70
2023/07/25 05:09:52;;;;;;;5.03;2.75;;;14.40;99.90;;;;;;5052588;28;20114;-68
2023/07/25 05:12:18;;;;;;;7.47;3.10;;;14.50;99.90;;;;;;5035112;28;20044;-68
2023/07/25 05:14:44;;;;;;;4.55;2.83;;;14.50;99.90;;;;;;5052356;28;20643;-68
2023/07/25 05:17:09;;;;;;;4.95;2.70;;;14.60;99.90;;;;;;5052839;28;20561;-69
2023/07/25 05:19:35;;;;;;;4.55;2.75;;;14.60;99.90;;;;;;5052406;28;20060;-68
2023/07/25 05:22:01;;;;;;;4.72;3.25;;;14.60;99.90;;;;;;5052466;28;20086;-69
2023/07/25 05:24:27;;;;;;;6.85;3.10;;;14.60;99.90;;;;;;5018047;28;20084;-69
2023/07/25 05:26:52;;;;;;;5.00;2.88;;;14.60;99.90;;;;;;5034429;28;20053;-68
2023/07/25 05:29:18;;;;;;;8.27;3.38;;;14.70;99.90;;;;;;5052545;28;20425;-68
2023/07/25 05:31:43;;;;;;;4.75;3.10;;;14.70;99.90;;;;;;5052361;28;20056;-68
2023/07/25 05:34:09;;;;;;;3.88;2.75;;;14.80;99.90;;;;;;5052582;28;20091;-68
2023/07/25 05:36:35;;;;;;;4.20;2.67;;;14.90;99.90;;;;;;5052929;28;20041;-68
2023/07/25 05:39:00;;;;;;;3.65;2.97;;;15.00;99.90;;;;;;5052417;28;20473;-69
2023/07/25 05:41:26;;;;;;;4.57;2.67;;;15.00;99.90;;;;;;5052530;28;20051;-68
2023/07/25 05:43:52;;;;;;;8.05;3.10;;;14.90;99.90;;;;;;5052724;28;20501;-70
2023/07/25 05:46:17;;;;;;;4.88;2.83;;;14.90;99.90;;;;;;5052288;28;20049;-68
2023/07/25 05:48:43;;;;;;;6.78;2.63;;;14.80;99.90;;;;;;5052238;28;20056;-68
2023/07/25 05:51:11;;;;;;;7.45;3.30;;;14.80;99.90;;;;;;5052273;28;20044;-68
2023/07/25 05:53:37;;;;;;;11.77;3.65;;;14.70;99.90;;;;;;5052627;28;20049;-70
2023/07/25 05:56:03;;;;;;;7.82;2.90;;;14.70;99.90;;;;;;5052120;28;20033;-68
2023/07/25 05:58:29;;;;;;;8.98;3.45;;;14.70;99.90;;;;;;5051894;28;20485;-68
2023/07/25 06:00:55;;;;;;;6.75;3.13;;;14.70;99.90;;;;;;5052114;28;20485;-67
2023/07/25 06:03:21;;;;;;;6.60;3.08;;;14.80;99.90;;;;;;5051948;28;20053;-68
2023/07/25 06:05:47;;;;;;;8.70;3.50;;;14.90;99.90;;;;;;5052113;28;20055;-70
2023/07/25 06:08:13;;;;;;;5.90;2.72;;;14.90;99.90;;;;;;5052052;28;20041;-68
2023/07/25 06:10:39;;;;;;;6.65;2.53;;;15.00;99.90;;;;;;5052115;28;20518;-68
2023/07/25 06:13:06;;;;;;;4.93;2.63;;;15.10;99.90;;;;;;5052094;28;20037;-67
2023/07/25 06:15:34;;;;;;;5.15;2.42;;;15.20;99.90;;;;;;5034750;28;20056;-68
2023/07/25 06:18:06;;;;;;;6.18;2.38;;;15.30;99.90;;;;;;5034732;28;20053;-67
2023/07/25 06:20:32;;;;;;;6.55;2.40;;;15.40;99.90;;;;;;5052492;28;20056;-70
2023/07/25 06:22:59;;;;;;;6.20;2.80;;;15.50;99.90;;;;;;5034446;28;20057;-69
2023/07/25 06:25:25;;;;;;;6.55;2.70;;;15.50;99.90;;;;;;5051616;28;20428;-68
2023/07/25 06:27:51;;;;;;;4.32;2.22;;;15.60;99.90;;;;;;5052128;28;20067;-68
2023/07/25 06:30:17;;;;;;;9.38;2.85;;;15.80;99.90;;;;;;5052017;28;20128;-68
2023/07/25 06:32:43;;;;;;;7.10;2.42;;;15.90;99.90;;;;;;5051930;28;20438;-70
2023/07/25 06:35:09;;;;;;;3.47;2.03;;;16.10;99.90;;;;;;5051995;28;20044;-68
2023/07/25 06:37:36;;;;;;;5.57;2.28;;;16.20;99.90;;;;;;5052426;28;20115;-68
2023/07/25 06:40:03;;;;;;;7.75;2.28;;;16.40;99.90;;;;;;5055291;28;20492;-68
2023/07/25 06:42:30;;;;;;;3.58;2.03;;;17.10;99.90;;;;;;5038051;28;20055;-69
2023/07/25 06:44:56;;;;;;;3.85;1.58;;;18.20;99.90;;;;;;5055553;28;20053;-68
2023/07/25 06:47:22;;;;;;;7.13;2.13;;;19.30;99.90;;;;;;5055506;28;20048;-70
2023/07/25 06:49:48;;;;;;;4.38;1.85;;;20.40;99.90;;;;;;5055533;28;20041;-69
2023/07/25 06:52:14;;;;;;;6.13;1.67;;;21.10;99.90;;;;;;5037695;28;20587;-69
2023/07/25 06:54:41;;;;;;;4.93;1.60;;;21.50;99.90;;;;;;5055994;28;20041;-69
2023/07/25 06:57:07;;;;;;;3.80;1.30;;;21.60;99.90;;;;;;5037599;28;20045;-69
2023/07/25 06:59:32;;;;;;;3.53;1.70;;;21.50;99.90;;;;;;5037854;28;20043;-69
2023/07/25 07:01:58;;;;;;;4.75;2.10;;;22.00;99.90;;;;;;5055270;28;20126;-68
2023/07/25 07:04:24;;;;;;;4.32;1.38;;;22.30;99.90;;;;;;5055295;28;20218;-69
2023/07/25 07:06:49;;;;;;;4.50;1.45;;;22.40;99.90;;;;;;5055138;28;20045;-70
2023/07/25 07:09:15;;;;;;;2.05;1.15;;;22.80;99.90;;;;;;5054731;28;20045;-68
2023/07/25 07:11:41;;;;;;;2.55;1.92;;;22.60;99.40;;;;;;5055549;28;20040;-69
2023/07/25 07:14:07;;;;;;;2.63;1.00;;;23.10;98.60;;;;;;5055647;28;20087;-69
2023/07/25 07:16:33;;;;;;;4.35;1.13;;;23.30;98.50;;;;;;5055337;28;20063;-71
2023/07/25 07:18:58;;;;;;;2.45;1.15;;;23.80;98.00;;;;;;5054992;28;20450;-69
2023/07/25 07:21:24;;;;;;;1.75;0.90;;;23.90;97.40;;;;;;5055385;28;20473;-68
2023/07/25 07:23:50;;;;;;;2.10;0.85;;;24.40;97.20;;;;;;5037106;28;20094;-69
2023/07/25 07:26:15;;;;;;;3.78;1.00;;;24.00;93.30;;;;;;5054784;28;20044;-70
2023/07/25 07:28:41;;;;;;;3.83;1.20;;;23.90;94.70;;;;;;5036945;28;20044;-68
2023/07/25 07:31:12;;;;;;;2.40;0.90;;;24.10;95.00;;;;;;5054689;28;20057;-70
2023/07/25 07:33:38;;;;;;;1.90;1.05;;;24.10;93.50;;;;;;5055100;28;20092;-69
2023/07/25 07:36:04;;;;;;;1.80;1.05;;;23.90;94.10;;;;;;5054572;28;20057;-70
2023/07/25 07:38:30;;;;;;;2.00;1.45;;;24.10;91.80;;;;;;5055198;28;20122;-69
2023/07/25 07:40:55;;;;;;;1.15;0.90;;;24.00;93.50;;;;;;5054728;28;20507;-68
2023/07/25 07:43:21;;;;;;;2.90;1.10;;;24.50;93.90;;;;;;5036704;28;20124;-68
2023/07/25 07:45:49;;;;;;;2.30;0.85;;;24.50;93.20;;;;;;5054400;28;20040;-69
2023/07/25 07:48:15;;;;;;;1.42;0.82;;;24.90;91.90;;;;;;5037387;28;20059;-68
2023/07/25 07:50:43;;;;;;;2.88;1.13;;;25.00;93.00;;;;;;5053781;28;20037;-68
2023/07/25 07:53:09;;;;;;;1.83;0.73;;;25.20;92.30;;;;;;5037190;28;20045;-68
2023/07/25 07:55:35;;;;;;;2.72;1.00;;;25.40;92.40;;;;;;5054223;28;20048;-68
2023/07/25 07:58:01;;;;;;;2.03;0.82;;;25.10;91.00;;;;;;5054796;28;20090;-68
2023/07/25 08:00:26;;;;;;;1.45;0.90;;;25.10;90.80;;;;;;5036829;28;20076;-70
2023/07/25 08:02:52;;;;;;;1.05;0.73;;;25.20;91.20;;;;;;5036753;28;20488;-69
2023/07/25 08:05:18;;;;;;;2.67;0.90;;;25.10;90.20;;;;;;5020064;28;20361;-68
2023/07/25 08:07:44;;;;;;;3.05;0.90;;;24.80;87.70;;;;;;5054229;28;20056;-68
2023/07/25 08:10:10;;;;;;;1.80;1.10;;;23.70;88.20;;;;;;5053986;28;20397;-71
2023/07/25 08:12:36;;;;;;;1.23;0.90;;;22.70;90.90;;;;;;5053898;28;20048;-68
2023/07/25 08:15:02;;;;;;;2.63;0.70;;;22.30;90.70;;;;;;5053673;28;20064;-69
2023/07/25 08:17:28;;;;;;;3.20;1.10;;;22.30;91.30;;;;;;5035990;28;20041;-68
2023/07/25 08:19:54;;;;;;;2.45;0.95;;;22.90;91.00;;;;;;5054120;28;20045;-68
2023/07/25 08:22:20;;;;;;;2.15;1.58;;;23.60;91.00;;;;;;5053669;28;20049;-68
2023/07/25 08:24:46;;;;;;;1.83;0.90;;;23.80;90.40;;;;;;5036217;28;20053;-68
2023/07/25 08:27:12;;;;;;;2.67;0.93;;;23.90;90.60;;;;;;5054352;28;20084;-68
2023/07/25 08:29:42;;;;;;;2.17;0.90;;;23.10;90.20;;;;;;5053678;28;20470;-68
2023/07/25 08:32:11;;;;;;;2.92;1.05;;;22.70;88.00;;;;;;5053683;28;20048;-68
2023/07/25 08:34:38;;;;;;;1.83;1.13;;;22.50;90.30;;;;;;5053966;28;20399;-69
2023/07/25 08:37:04;;;;;;;4.80;1.02;;;22.20;90.30;;;;;;5053481;28;20173;-68
2023/07/25 08:39:30;;;;;;;1.75;0.93;;;22.10;89.70;;;;;;5053710;28;20172;-68
2023/07/25 08:41:58;;;;;;;2.53;0.93;;;22.30;87.50;;;;;;5053410;28;20523;-67
2023/07/25 08:44:25;;;;;;;4.45;1.13;;;22.40;89.30;;;;;;5053868;28;20424;-68
2023/07/25 08:46:53;;;;;;;2.42;1.13;;;22.80;91.20;;;;;;5035556;28;20359;-68
2023/07/25 08:49:24;;;;;;;3.95;1.10;;;23.10;88.40;;;;;;5053201;28;20462;-68
2023/07/25 08:51:54;;;;;;;3.05;1.08;;;23.60;88.90;;;;;;5053239;28;20091;-68
2023/07/25 08:54:36;;;;;;;3.72;1.17;;;24.00;87.70;;;;;;5053223;28;20462;-67
2023/07/25 08:57:03;;;;;;;3.03;0.80;;;24.00;86.90;;;;;;5053510;28;20041;-69
2023/07/25 08:59:30;;;;;;;2.92;1.23;;;24.10;89.20;;;;;;5053212;28;20044;-68
2023/07/25 09:01:56;;;;;;;3.63;1.15;;;24.30;90.00;;;;;;5053098;28;20127;-68
2023/07/25 09:04:24;;;;;;;2.60;0.80;;;24.50;90.20;;;;;;5053065;28;20128;-68
2023/07/25 09:06:50;;;;;;;1.35;0.90;;;24.60;89.30;;;;;;5053362;28;20047;-68
2023/07/25 09:09:17;;;;;;;6.45;1.10;;;24.90;88.60;;;;;;5053014;28;20041;-68
2023/07/25 09:11:46;;;;;;;2.03;0.90;;;25.20;88.40;;;;;;5053266;28;20124;-68
2023/07/25 09:14:12;;;;;;;1.88;0.93;;;25.40;88.10;;;;;;5052880;28;20477;-68
2023/07/25 09:16:38;;;;;;;1.80;0.82;;;25.00;87.50;;;;;;5034823;28;20053;-68
2023/07/25 09:19:04;;;;;;;2.75;1.40;;;24.60;88.70;;;;;;5052691;28;20049;-68
2023/07/25 09:21:30;;;;;;;3.20;1.13;;;23.70;87.90;;;;;;5052737;28;20082;-68
2023/07/25 09:23:58;;;;;;;1.98;0.95;;;22.80;90.20;;;;;;5052711;28;20048;-68
2023/07/25 09:26:29;;;;;;;3.28;1.73;;;22.80;90.30;;;;;;5053216;28;20055;-68
2023/07/25 09:28:59;;;;;;;4.32;1.15;;;23.20;90.70;;;;;;5053066;28;20454;-69
2023/07/25 09:31:26;;;;;;;2.33;1.10;;;24.10;89.40;;;;;;5035036;28;20045;-69
2023/07/25 09:33:54;;;;;;;0.95;0.82;;;24.90;90.60;;;;;;5035020;28;20080;-70
2023/07/25 09:36:20;;;;;;;1.85;0.90;;;25.20;89.70;;;;;;5052486;28;20049;-68
2023/07/25 09:38:55;;;;;;;1.02;0.70;;;24.80;83.70;;;;;;5052102;28;20118;-68
2023/07/25 09:41:22;;;;;;;2.45;0.90;;;24.40;85.10;;;;;;5052235;28;20048;-69
2023/07/25 09:43:49;;;;;;;1.33;0.80;;;24.00;87.30;;;;;;5052090;28;20067;-69
2023/07/25 09:46:14;;;;;;;3.33;1.05;;;23.50;89.90;;;;;;5052658;28;20045;-68
2023/07/25 09:48:50;;;;;;;4.90;1.23;;;23.50;90.20;;;;;;5034447;28;20431;-69
2023/07/25 09:51:16;;;;;;;2.38;0.95;;;24.10;89.60;;;;;;5052482;28;20056;-68
2023/07/25 09:53:43;;;;;;;1.85;0.90;;;24.80;89.60;;;;;;5052049;28;20049;-68
2023/07/25 09:56:11;;;;;;;2.72;1.17;;;25.10;88.50;;;;;;5034462;28;20049;-67
2023/07/25 09:58:37;;;;;;;1.48;1.23;;;25.10;86.10;;;;;;5034644;28;20076;-69
2023/07/25 10:01:04;;;;;;;3.47;1.27;;;24.40;87.80;;;;;;5052272;28;20045;-67
2023/07/25 10:03:30;;;;;;;1.70;1.15;;;23.70;88.10;;;;;;5051662;28;20491;-68
2023/07/25 10:05:56;;;;;;;1.80;1.08;;;22.90;88.70;;;;;;5034347;28;20126;-68
2023/07/25 10:08:26;;;;;;;1.83;1.00;;;22.50;90.10;;;;;;5052084;28;20041;-68
2023/07/25 10:10:55;;;;;;;6.40;2.03;;;22.10;90.90;;;;;;5051766;28;20523;-67
2023/07/25 10:13:21;;;;;;;5.00;1.48;;;22.40;91.00;;;;;;5052889;28;20374;-68
2023/07/25 10:15:49;;;;;;;4.38;1.40;;;22.10;90.80;;;;;;5055963;28;20072;-69
2023/07/25 10:18:25;;;;;;;2.92;1.30;;;21.60;91.30;;;;;;5055784;28;20044;-67
2023/07/25 10:20:52;;;;;;;5.72;1.33;;;21.30;91.70;;;;;;5056323;28;20096;-67
2023/07/25 10:23:19;;;;;;;2.47;1.00;;;21.20;92.00;;;;;;5038009;28;20056;-68
2023/07/25 10:25:45;;;;;;;2.25;1.10;;;21.40;92.40;;;;;;5038116;28;20075;-67
2023/07/25 10:28:12;;;;;;;2.40;0.95;;;21.40;92.00;;;;;;5055691;28;20041;-67
2023/07/25 10:30:45;;;;;;;3.97;1.42;;;21.00;92.00;;;;;;5055758;28;20127;-67
2023/07/25 10:33:13;;;;;;;2.65;1.13;;;20.80;92.70;;;;;;5055770;28;20534;-67
2023/07/25 10:35:40;;;;;;;3.92;1.48;;;20.50;93.10;;;;;;5055659;28;20048;-68
2023/07/25 10:38:11;;;;;;;4.38;1.20;;;20.20;93.80;;;;;;5055958;28;20063;-67
2023/07/25 10:40:53;;;;;;;2.85;1.40;;;20.10;94.40;;;;;;5055985;28;20466;-68
2023/07/25 10:43:21;;;;;;;5.30;1.73;;;19.80;95.10;;;;;;5055495;28;20076;-67
2023/07/25 10:45:51;;;;;;;4.07;1.30;;;19.70;94.90;;;;;;5055519;28;20055;-69
2023/07/25 10:48:30;;;;;;;5.60;1.75;;;19.70;95.10;;;;;;5037156;28;20427;-70
2023/07/25 10:50:56;;;;;;;6.10;1.63;;;19.90;95.50;;;;;;5055569;28;20045;-69
2023/07/25 10:53:24;;;;;;;3.42;1.80;;;20.20;95.50;;;;;;5037615;28;20040;-67
2023/07/25 10:56:05;;;;;;;6.30;1.90;;;20.50;94.90;;;;;;5055256;28;20053;-68
2023/07/25 10:58:39;;;;;;;3.85;1.30;;;21.20;94.60;;;;;;5037673;28;20438;-69
2023/07/25 11:01:06;;;;;;;2.22;1.25;;;21.30;93.00;;;;;;5055241;28;20052;-70
2023/07/25 11:03:36;;;;;;;2.45;1.30;;;20.90;92.90;;;;;;5055098;28;20107;-68
2023/07/25 11:06:08;;;;;;;2.10;1.20;;;20.70;92.50;;;;;;5055597;28;20048;-69
2023/07/25 11:08:38;;;;;;;2.05;1.48;;;20.40;92.60;;;;;;5055141;28;20052;-68
2023/07/25 11:11:07;;;;;;;2.83;1.00;;;20.40;92.60;;;;;;5037370;28;20138;-68
2023/07/25 11:13:34;;;;;;;3.47;1.17;;;20.50;93.00;;;;;;5037522;28;20127;-67
2023/07/25 11:16:04;;;;;;;4.25;1.63;;;20.70;92.90;;;;;;5054852;28;20057;-68
2023/07/25 11:18:36;;;;;;;4.03;1.52;;;20.80;91.90;;;;;;5054810;28;20492;-68
2023/07/25 11:21:02;;;;;;;2.95;1.30;;;20.90;91.80;;;;;;5038005;28;20095;-67
2023/07/25 11:23:28;;;;;;;4.78;1.58;;;21.10;92.30;;;;;;5054742;28;20045;-68
2023/07/25 11:25:58;;;;;;;3.33;1.75;;;21.10;92.70;;;;;;5036436;28;20331;-68
2023/07/25 11:28:25;;;;;;;2.85;1.38;;;20.90;92.20;;;;;;5054688;28;20048;-68
2023/07/25 11:30:53;;;;;;;5.47;1.67;;;20.80;92.80;;;;;;5037332;28;20064;-68
2023/07/25 11:33:19;;;;;;;5.43;1.33;;;20.60;92.50;;;;;;5054548;28;20465;-68
2023/07/25 11:35:52;;;;;;;2.92;1.20;;;20.70;92.20;;;;;;5037399;28;20048;-69
2023/07/25 11:38:18;;;;;;;1.85;1.27;;;20.90;92.80;;;;;;5054497;28;20129;-67
2023/07/25 11:40:50;;;;;;;2.33;1.23;;;20.80;92.30;;;;;;5054777;28;20088;-67
2023/07/25 11:43:16;;;;;;;2.65;1.48;;;20.80;92.70;;;;;;5055050;28;20075;-67
2023/07/25 11:45:44;;;;;;;2.63;1.15;;;20.50;93.10;;;;;;5054694;28;20123;-67
2023/07/25 11:48:11;;;;;;;2.42;1.20;;;20.50;93.60;;;;;;5054282;28;20041;-69
2023/07/25 11:50:37;;;;;;;3.42;1.48;;;20.90;93.30;;;;;;5054309;28;20074;-68
2023/07/25 11:53:04;;;;;;;2.22;1.15;;;21.00;92.70;;;;;;5053853;28;20045;-68
2023/07/25 11:55:30;;;;;;;2.65;1.30;;;21.10;92.60;;;;;;5054181;28;20056;-68
2023/07/25 11:57:55;;;;;;;3.72;1.63;;;21.00;92.00;;;;;;5054351;28;20037;-68
2023/07/25 12:00:22;;;;;;;3.35;1.30;;;21.00;92.70;;;;;;5054184;28;20041;-67
2023/07/25 12:02:48;;;;;;;1.13;1.02;;;21.00;92.30;;;;;;5036547;28;20049;-67
2023/07/25 12:05:28;;;;;;;3.13;1.15;;;21.10;92.10;;;;;;5054352;28;20052;-66
2023/07/25 12:08:02;;;;;;;2.15;1.20;;;21.10;91.00;;;;;;5054205;28;20052;-67
2023/07/25 12:10:32;;;;;;;3.40;1.20;;;20.90;91.70;;;;;;5035986;28;20075;-67
2023/07/25 12:13:02;;;;;;;2.50;1.40;;;20.70;92.00;;;;;;5053911;28;20489;-67
2023/07/25 12:15:45;;;;;;;2.95;1.27;;;20.70;92.20;;;;;;5035798;28;20084;-67
2023/07/25 12:18:41;;;;;;;4.68;1.50;;;20.60;92.20;;;;;;5053695;28;20057;-68
2023/07/25 12:21:22;;;;;;;2.28;1.20;;;20.80;91.80;;;;;;5036363;28;20063;-67
2023/07/25 12:23:51;;;;;;;4.22;1.33;;;21.00;92.60;;;;;;5054109;28;20044;-67
2023/07/25 12:26:20;;;;;;;2.53;0.98;;;21.20;91.90;;;;;;5053523;28;20049;-68
2023/07/25 12:28:47;;;;;;;3.47;1.45;;;21.10;92.20;;;;;;5035996;28;20071;-67
2023/07/25 12:31:13;;;;;;;3.05;0.93;;;20.90;92.00;;;;;;5053584;28;20052;-68
2023/07/25 12:33:41;;;;;;;3.88;1.05;;;20.90;92.30;;;;;;5054044;28;20051;-67
2023/07/25 12:36:07;;;;;;;2.28;0.90;;;20.80;91.60;;;;;;5053038;28;20493;-67
2023/07/25 12:38:33;;;;;;;3.10;1.10;;;20.90;91.80;;;;;;5053450;28;20053;-67
2023/07/25 12:40:59;;;;;;;2.30;1.45;;;21.20;92.10;;;;;;5035692;28;20075;-68
2023/07/25 12:43:24;;;;;;;3.40;1.15;;;21.40;92.00;;;;;;5053620;28;20433;-67